sensor_id;sensor_type;location;lat;lon;timestamp;P1;durP1;ratioP1;P2;durP2;ratioP2
20731;SDS011;10527;52.124;5.196;2022-11-18T00:01:14;2.43;;;1.30;;
20731;SDS011;10527;52.124;5.196;2022-11-18T00:03:45;2.57;;;1.30;;
20731;SDS011;10527;52.124;5.196;2022-11-18T00:06:21;1.87;;;1.30;;
20731;SDS011;10527;52.124;5.196;2022-11-18T00:08:53;3.30;;;1.37;;
20731;SDS011;10527;52.124;5.196;2022-11-18T00:11:22;3.17;;;1.70;;
20731;SDS011;10527;52.124;5.196;2022-11-18T00:14:11;4.03;;;1.67;;
20731;SDS011;10527;52.124;5.196;2022-11-18T00:19:24;3.23;;;1.43;;
20731;SDS011;10527;52.124;5.196;2022-11-18T00:21:55;2.67;;;1.20;;
20731;SDS011;10527;52.124;5.196;2022-11-18T00:24:23;3.40;;;1.80;;
20731;SDS011;10527;52.124;5.196;2022-11-18T00:26:51;6.20;;;2.33;;
20731;SDS011;10527;52.124;5.196;2022-11-18T00:29:19;2.77;;;1.70;;
20731;SDS011;10527;52.124;5.196;2022-11-18T00:31:48;3.33;;;1.50;;
20731;SDS011;10527;52.124;5.196;2022-11-18T00:34:15;4.17;;;2.07;;
20731;SDS011;10527;52.124;5.196;2022-11-18T00:36:44;1.87;;;1.20;;
20731;SDS011;10527;52.124;5.196;2022-11-18T00:39:13;3.00;;;1.27;;
20731;SDS011;10527;52.124;5.196;2022-11-18T00:41:44;1.90;;;1.40;;
20731;SDS011;10527;52.124;5.196;2022-11-18T00:44:31;1.80;;;1.30;;
20731;SDS011;10527;52.124;5.196;2022-11-18T00:46:57;4.20;;;1.30;;
20731;SDS011;10527;52.124;5.196;2022-11-18T00:49:24;2.60;;;1.33;;
20731;SDS011;10527;52.124;5.196;2022-11-18T00:51:51;4.13;;;1.37;;
20731;SDS011;10527;52.124;5.196;2022-11-18T00:54:18;5.40;;;1.67;;
20731;SDS011;10527;52.124;5.196;2022-11-18T00:56:45;2.37;;;1.27;;
20731;SDS011;10527;52.124;5.196;2022-11-18T00:59:11;4.47;;;1.47;;
20731;SDS011;10527;52.124;5.196;2022-11-18T01:01:38;3.27;;;1.60;;
20731;SDS011;10527;52.124;5.196;2022-11-18T01:04:05;4.63;;;1.57;;
20731;SDS011;10527;52.124;5.196;2022-11-18T01:06:32;3.77;;;1.60;;
20731;SDS011;10527;52.124;5.196;2022-11-18T01:08:59;2.90;;;1.63;;
20731;SDS011;10527;52.124;5.196;2022-11-18T01:11:25;2.33;;;1.10;;
20731;SDS011;10527;52.124;5.196;2022-11-18T01:14:11;4.20;;;1.23;;
20731;SDS011;10527;52.124;5.196;2022-11-18T01:16:37;3.60;;;1.67;;
20731;SDS011;10527;52.124;5.196;2022-11-18T01:19:05;3.10;;;1.60;;
20731;SDS011;10527;52.124;5.196;2022-11-18T01:21:34;3.60;;;1.47;;
20731;SDS011;10527;52.124;5.196;2022-11-18T01:24:01;2.43;;;1.50;;
20731;SDS011;10527;52.124;5.196;2022-11-18T01:26:36;4.30;;;1.93;;
20731;SDS011;10527;52.124;5.196;2022-11-18T01:29:03;4.70;;;1.40;;
20731;SDS011;10527;52.124;5.196;2022-11-18T01:31:30;3.60;;;1.60;;
20731;SDS011;10527;52.124;5.196;2022-11-18T01:33:56;2.90;;;1.30;;
20731;SDS011;10527;52.124;5.196;2022-11-18T01:36:24;3.27;;;1.53;;
20731;SDS011;10527;52.124;5.196;2022-11-18T01:38:53;3.20;;;1.60;;
20731;SDS011;10527;52.124;5.196;2022-11-18T01:41:23;2.53;;;1.60;;
20731;SDS011;10527;52.124;5.196;2022-11-18T01:43:59;3.60;;;1.60;;
20731;SDS011;10527;52.124;5.196;2022-11-18T01:46:48;3.13;;;1.50;;
20731;SDS011;10527;52.124;5.196;2022-11-18T01:49:14;2.87;;;1.70;;
20731;SDS011;10527;52.124;5.196;2022-11-18T01:51:50;1.93;;;1.53;;
20731;SDS011;10527;52.124;5.196;2022-11-18T01:54:24;5.10;;;1.50;;
20731;SDS011;10527;52.124;5.196;2022-11-18T01:57:02;1.80;;;1.30;;
20731;SDS011;10527;52.124;5.196;2022-11-18T01:59:43;3.53;;;1.83;;
20731;SDS011;10527;52.124;5.196;2022-11-18T02:02:15;2.00;;;1.50;;
20731;SDS011;10527;52.124;5.196;2022-11-18T02:04:43;3.63;;;1.77;;
20731;SDS011;10527;52.124;5.196;2022-11-18T02:07:15;3.00;;;1.70;;
20731;SDS011;10527;52.124;5.196;2022-11-18T02:09:43;4.73;;;1.90;;
20731;SDS011;10527;52.124;5.196;2022-11-18T02:12:09;2.80;;;1.43;;
20731;SDS011;10527;52.124;5.196;2022-11-18T02:14:40;2.50;;;2.30;;
20731;SDS011;10527;52.124;5.196;2022-11-18T02:20:21;2.03;;;1.70;;
20731;SDS011;10527;52.124;5.196;2022-11-18T02:29:41;3.90;;;2.03;;
20731;SDS011;10527;52.124;5.196;2022-11-18T02:32:23;2.43;;;1.40;;
20731;SDS011;10527;52.124;5.196;2022-11-18T02:37:58;2.67;;;1.87;;
20731;SDS011;10527;52.124;5.196;2022-11-18T02:40:33;4.07;;;1.80;;
20731;SDS011;10527;52.124;5.196;2022-11-18T02:43:08;3.93;;;1.70;;
20731;SDS011;10527;52.124;5.196;2022-11-18T02:45:47;4.13;;;2.23;;
20731;SDS011;10527;52.124;5.196;2022-11-18T02:48:21;4.97;;;2.13;;
20731;SDS011;10527;52.124;5.196;2022-11-18T02:50:51;3.97;;;2.10;;
20731;SDS011;10527;52.124;5.196;2022-11-18T02:53:22;3.47;;;1.70;;
20731;SDS011;10527;52.124;5.196;2022-11-18T02:55:53;3.73;;;1.80;;
20731;SDS011;10527;52.124;5.196;2022-11-18T02:58:21;4.63;;;2.30;;
20731;SDS011;10527;52.124;5.196;2022-11-18T03:00:54;3.03;;;1.87;;
20731;SDS011;10527;52.124;5.196;2022-11-18T03:05:59;3.70;;;2.03;;
20731;SDS011;10527;52.124;5.196;2022-11-18T03:08:45;6.93;;;2.77;;
20731;SDS011;10527;52.124;5.196;2022-11-18T03:11:55;2.53;;;1.63;;
20731;SDS011;10527;52.124;5.196;2022-11-18T03:20:54;3.50;;;1.63;;
20731;SDS011;10527;52.124;5.196;2022-11-18T03:26:46;2.20;;;1.70;;
20731;SDS011;10527;52.124;5.196;2022-11-18T03:29:22;3.20;;;2.07;;
20731;SDS011;10527;52.124;5.196;2022-11-18T03:32:02;6.13;;;2.30;;
20731;SDS011;10527;52.124;5.196;2022-11-18T03:34:50;4.73;;;2.07;;
20731;SDS011;10527;52.124;5.196;2022-11-18T03:37:24;4.10;;;2.37;;
20731;SDS011;10527;52.124;5.196;2022-11-18T03:39:57;4.50;;;2.47;;
20731;SDS011;10527;52.124;5.196;2022-11-18T03:42:37;5.30;;;2.37;;
20731;SDS011;10527;52.124;5.196;2022-11-18T03:45:13;3.83;;;2.10;;
20731;SDS011;10527;52.124;5.196;2022-11-18T03:47:52;3.60;;;1.93;;
20731;SDS011;10527;52.124;5.196;2022-11-18T03:50:34;3.70;;;1.77;;
20731;SDS011;10527;52.124;5.196;2022-11-18T03:53:10;4.97;;;2.17;;
20731;SDS011;10527;52.124;5.196;2022-11-18T03:55:41;4.80;;;2.10;;
20731;SDS011;10527;52.124;5.196;2022-11-18T03:58:31;3.63;;;1.90;;
20731;SDS011;10527;52.124;5.196;2022-11-18T04:01:03;2.33;;;1.97;;
20731;SDS011;10527;52.124;5.196;2022-11-18T04:03:43;3.10;;;1.73;;
20731;SDS011;10527;52.124;5.196;2022-11-18T04:06:15;4.10;;;2.07;;
20731;SDS011;10527;52.124;5.196;2022-11-18T04:08:57;3.13;;;1.90;;
20731;SDS011;10527;52.124;5.196;2022-11-18T04:11:35;4.00;;;2.10;;
20731;SDS011;10527;52.124;5.196;2022-11-18T04:14:28;1.70;;;1.43;;
20731;SDS011;10527;52.124;5.196;2022-11-18T04:17:09;4.93;;;2.57;;
20731;SDS011;10527;52.124;5.196;2022-11-18T04:19:38;4.87;;;2.30;;
20731;SDS011;10527;52.124;5.196;2022-11-18T04:22:06;6.40;;;1.87;;
20731;SDS011;10527;52.124;5.196;2022-11-18T04:24:34;3.07;;;1.87;;
20731;SDS011;10527;52.124;5.196;2022-11-18T04:27:02;2.97;;;1.80;;
20731;SDS011;10527;52.124;5.196;2022-11-18T04:29:30;4.77;;;2.47;;
20731;SDS011;10527;52.124;5.196;2022-11-18T04:31:59;4.30;;;2.07;;
20731;SDS011;10527;52.124;5.196;2022-11-18T04:34:27;3.47;;;2.30;;
20731;SDS011;10527;52.124;5.196;2022-11-18T04:36:56;3.10;;;1.80;;
20731;SDS011;10527;52.124;5.196;2022-11-18T04:39:24;3.27;;;1.90;;
20731;SDS011;10527;52.124;5.196;2022-11-18T04:41:50;3.93;;;2.73;;
20731;SDS011;10527;52.124;5.196;2022-11-18T04:44:30;2.80;;;1.93;;
20731;SDS011;10527;52.124;5.196;2022-11-18T04:47:00;4.53;;;2.07;;
20731;SDS011;10527;52.124;5.196;2022-11-18T04:49:30;3.37;;;1.87;;
20731;SDS011;10527;52.124;5.196;2022-11-18T04:51:57;2.30;;;1.80;;
20731;SDS011;10527;52.124;5.196;2022-11-18T04:54:26;2.87;;;1.73;;
20731;SDS011;10527;52.124;5.196;2022-11-18T04:56:53;2.47;;;2.27;;
20731;SDS011;10527;52.124;5.196;2022-11-18T04:59:22;3.60;;;1.97;;
20731;SDS011;10527;52.124;5.196;2022-11-18T05:01:52;4.83;;;2.60;;
20731;SDS011;10527;52.124;5.196;2022-11-18T05:04:21;3.80;;;2.20;;
20731;SDS011;10527;52.124;5.196;2022-11-18T05:06:51;2.33;;;1.80;;
20731;SDS011;10527;52.124;5.196;2022-11-18T05:09:18;6.77;;;2.47;;
20731;SDS011;10527;52.124;5.196;2022-11-18T05:11:46;4.07;;;2.00;;
20731;SDS011;10527;52.124;5.196;2022-11-18T05:14:31;4.30;;;2.00;;
20731;SDS011;10527;52.124;5.196;2022-11-18T05:16:59;3.10;;;2.20;;
20731;SDS011;10527;52.124;5.196;2022-11-18T05:19:28;4.20;;;2.43;;
20731;SDS011;10527;52.124;5.196;2022-11-18T05:21:55;3.43;;;2.00;;
20731;SDS011;10527;52.124;5.196;2022-11-18T05:24:23;4.90;;;2.10;;
20731;SDS011;10527;52.124;5.196;2022-11-18T05:26:50;3.67;;;1.73;;
20731;SDS011;10527;52.124;5.196;2022-11-18T05:29:20;6.07;;;2.53;;
20731;SDS011;10527;52.124;5.196;2022-11-18T05:31:47;5.73;;;2.30;;
20731;SDS011;10527;52.124;5.196;2022-11-18T05:34:15;5.20;;;2.50;;
20731;SDS011;10527;52.124;5.196;2022-11-18T05:36:44;2.67;;;1.83;;
20731;SDS011;10527;52.124;5.196;2022-11-18T05:39:11;3.57;;;2.00;;
20731;SDS011;10527;52.124;5.196;2022-11-18T05:41:38;2.47;;;2.03;;
20731;SDS011;10527;52.124;5.196;2022-11-18T05:44:23;3.97;;;2.00;;
20731;SDS011;10527;52.124;5.196;2022-11-18T05:46:50;3.83;;;2.13;;
20731;SDS011;10527;52.124;5.196;2022-11-18T05:49:17;2.43;;;1.80;;
20731;SDS011;10527;52.124;5.196;2022-11-18T05:51:44;3.33;;;1.70;;
20731;SDS011;10527;52.124;5.196;2022-11-18T05:54:11;3.30;;;1.80;;
20731;SDS011;10527;52.124;5.196;2022-11-18T05:56:42;2.80;;;1.63;;
20731;SDS011;10527;52.124;5.196;2022-11-18T05:59:10;3.20;;;2.00;;
20731;SDS011;10527;52.124;5.196;2022-11-18T06:04:12;3.20;;;1.97;;
20731;SDS011;10527;52.124;5.196;2022-11-18T06:06:57;3.93;;;2.17;;
20731;SDS011;10527;52.124;5.196;2022-11-18T06:09:31;3.97;;;2.00;;
20731;SDS011;10527;52.124;5.196;2022-11-18T06:12:02;4.27;;;2.07;;
20731;SDS011;10527;52.124;5.196;2022-11-18T06:14:39;5.60;;;2.27;;
20731;SDS011;10527;52.124;5.196;2022-11-18T06:17:21;5.67;;;2.23;;
20731;SDS011;10527;52.124;5.196;2022-11-18T06:19:57;5.33;;;2.07;;
20731;SDS011;10527;52.124;5.196;2022-11-18T06:22:28;3.57;;;2.07;;
20731;SDS011;10527;52.124;5.196;2022-11-18T06:24:55;3.10;;;2.20;;
20731;SDS011;10527;52.124;5.196;2022-11-18T06:27:23;3.47;;;2.00;;
20731;SDS011;10527;52.124;5.196;2022-11-18T06:29:50;4.00;;;2.17;;
20731;SDS011;10527;52.124;5.196;2022-11-18T06:32:17;3.83;;;2.03;;
20731;SDS011;10527;52.124;5.196;2022-11-18T06:34:44;3.67;;;2.00;;
20731;SDS011;10527;52.124;5.196;2022-11-18T06:37:11;2.40;;;1.40;;
20731;SDS011;10527;52.124;5.196;2022-11-18T06:39:40;3.83;;;2.23;;
20731;SDS011;10527;52.124;5.196;2022-11-18T06:42:07;5.83;;;2.37;;
20731;SDS011;10527;52.124;5.196;2022-11-18T06:44:34;3.67;;;1.80;;
20731;SDS011;10527;52.124;5.196;2022-11-18T06:47:02;4.13;;;2.17;;
20731;SDS011;10527;52.124;5.196;2022-11-18T06:49:32;2.70;;;1.80;;
20731;SDS011;10527;52.124;5.196;2022-11-18T06:51:59;3.67;;;2.00;;
20731;SDS011;10527;52.124;5.196;2022-11-18T06:54:26;3.47;;;1.90;;
20731;SDS011;10527;52.124;5.196;2022-11-18T06:56:53;4.23;;;2.10;;
20731;SDS011;10527;52.124;5.196;2022-11-18T06:59:22;4.63;;;2.43;;
20731;SDS011;10527;52.124;5.196;2022-11-18T07:01:51;5.97;;;1.90;;
20731;SDS011;10527;52.124;5.196;2022-11-18T07:04:18;3.10;;;2.00;;
20731;SDS011;10527;52.124;5.196;2022-11-18T07:06:45;3.43;;;2.20;;
20731;SDS011;10527;52.124;5.196;2022-11-18T07:09:12;3.63;;;2.10;;
20731;SDS011;10527;52.124;5.196;2022-11-18T07:11:39;5.50;;;2.33;;
20731;SDS011;10527;52.124;5.196;2022-11-18T07:14:07;4.40;;;2.00;;
20731;SDS011;10527;52.124;5.196;2022-11-18T07:16:37;2.90;;;1.83;;
20731;SDS011;10527;52.124;5.196;2022-11-18T07:19:08;6.20;;;2.40;;
20731;SDS011;10527;52.124;5.196;2022-11-18T07:21:37;3.80;;;2.20;;
20731;SDS011;10527;52.124;5.196;2022-11-18T07:24:06;3.83;;;2.10;;
20731;SDS011;10527;52.124;5.196;2022-11-18T07:26:34;3.03;;;2.47;;
20731;SDS011;10527;52.124;5.196;2022-11-18T07:29:02;6.13;;;3.35;;
20731;SDS011;10527;52.124;5.196;2022-11-18T07:31:29;4.37;;;2.73;;
20731;SDS011;10527;52.124;5.196;2022-11-18T07:33:56;4.70;;;2.27;;
20731;SDS011;10527;52.124;5.196;2022-11-18T07:36:27;3.60;;;2.07;;
20731;SDS011;10527;52.124;5.196;2022-11-18T07:39:01;4.33;;;2.00;;
20731;SDS011;10527;52.124;5.196;2022-11-18T07:41:30;3.70;;;2.13;;
20731;SDS011;10527;52.124;5.196;2022-11-18T07:43:59;5.57;;;2.37;;
20731;SDS011;10527;52.124;5.196;2022-11-18T07:46:34;3.23;;;2.20;;
20731;SDS011;10527;52.124;5.196;2022-11-18T07:49:04;5.43;;;2.30;;
20731;SDS011;10527;52.124;5.196;2022-11-18T07:51:39;4.27;;;2.30;;
20731;SDS011;10527;52.124;5.196;2022-11-18T07:54:07;3.13;;;2.03;;
20731;SDS011;10527;52.124;5.196;2022-11-18T07:56:38;4.10;;;2.37;;
20731;SDS011;10527;52.124;5.196;2022-11-18T07:59:05;2.70;;;2.20;;
20731;SDS011;10527;52.124;5.196;2022-11-18T08:01:32;3.73;;;2.70;;
20731;SDS011;10527;52.124;5.196;2022-11-18T08:04:06;3.93;;;2.50;;
20731;SDS011;10527;52.124;5.196;2022-11-18T08:06:35;4.47;;;2.63;;
20731;SDS011;10527;52.124;5.196;2022-11-18T08:09:08;5.63;;;3.23;;
20731;SDS011;10527;52.124;5.196;2022-11-18T08:11:35;5.73;;;3.23;;
20731;SDS011;10527;52.124;5.196;2022-11-18T08:14:02;5.83;;;4.30;;
20731;SDS011;10527;52.124;5.196;2022-11-18T08:16:29;7.57;;;4.53;;
20731;SDS011;10527;52.124;5.196;2022-11-18T08:19:03;8.47;;;6.03;;
20731;SDS011;10527;52.124;5.196;2022-11-18T08:21:30;9.67;;;6.90;;
20731;SDS011;10527;52.124;5.196;2022-11-18T08:24:00;11.00;;;7.20;;
20731;SDS011;10527;52.124;5.196;2022-11-18T08:26:26;10.03;;;9.00;;
20731;SDS011;10527;52.124;5.196;2022-11-18T08:28:54;9.93;;;7.57;;
20731;SDS011;10527;52.124;5.196;2022-11-18T08:31:23;7.60;;;6.90;;
20731;SDS011;10527;52.124;5.196;2022-11-18T08:34:04;8.07;;;6.27;;
20731;SDS011;10527;52.124;5.196;2022-11-18T08:36:34;8.60;;;5.90;;
20731;SDS011;10527;52.124;5.196;2022-11-18T08:39:03;9.37;;;4.90;;
20731;SDS011;10527;52.124;5.196;2022-11-18T08:41:34;6.30;;;3.77;;
20731;SDS011;10527;52.124;5.196;2022-11-18T08:44:07;4.40;;;2.90;;
20731;SDS011;10527;52.124;5.196;2022-11-18T08:46:39;5.73;;;2.87;;
20731;SDS011;10527;52.124;5.196;2022-11-18T08:49:06;8.73;;;3.13;;
20731;SDS011;10527;52.124;5.196;2022-11-18T08:51:33;4.73;;;2.60;;
20731;SDS011;10527;52.124;5.196;2022-11-18T08:54:00;5.40;;;2.27;;
20731;SDS011;10527;52.124;5.196;2022-11-18T08:56:31;5.53;;;2.50;;
20731;SDS011;10527;52.124;5.196;2022-11-18T08:58:58;4.10;;;2.50;;
20731;SDS011;10527;52.124;5.196;2022-11-18T09:01:25;4.37;;;2.40;;
20731;SDS011;10527;52.124;5.196;2022-11-18T09:03:53;3.77;;;2.30;;
20731;SDS011;10527;52.124;5.196;2022-11-18T09:06:21;5.10;;;2.70;;
20731;SDS011;10527;52.124;5.196;2022-11-18T09:08:50;3.83;;;2.27;;
20731;SDS011;10527;52.124;5.196;2022-11-18T09:11:19;6.40;;;2.50;;
20731;SDS011;10527;52.124;5.196;2022-11-18T09:13:55;8.47;;;2.60;;
20731;SDS011;10527;52.124;5.196;2022-11-18T09:16:44;7.10;;;2.80;;
20731;SDS011;10527;52.124;5.196;2022-11-18T09:19:13;7.93;;;2.70;;
20731;SDS011;10527;52.124;5.196;2022-11-18T09:22:01;4.60;;;2.30;;
20731;SDS011;10527;52.124;5.196;2022-11-18T09:24:36;4.70;;;2.47;;
20731;SDS011;10527;52.124;5.196;2022-11-18T09:27:03;5.83;;;2.70;;
20731;SDS011;10527;52.124;5.196;2022-11-18T09:32:09;7.33;;;2.30;;
20731;SDS011;10527;52.124;5.196;2022-11-18T09:34:36;5.40;;;2.27;;
20731;SDS011;10527;52.124;5.196;2022-11-18T09:37:03;6.00;;;3.70;;
20731;SDS011;10527;52.124;5.196;2022-11-18T09:39:35;5.97;;;3.07;;
20731;SDS011;10527;52.124;5.196;2022-11-18T09:48:03;5.83;;;2.33;;
20731;SDS011;10527;52.124;5.196;2022-11-18T09:50:46;8.17;;;2.77;;
20731;SDS011;10527;52.124;5.196;2022-11-18T09:53:19;6.43;;;2.40;;
20731;SDS011;10527;52.124;5.196;2022-11-18T09:55:50;5.60;;;2.73;;
20731;SDS011;10527;52.124;5.196;2022-11-18T09:58:32;4.00;;;1.97;;
20731;SDS011;10527;52.124;5.196;2022-11-18T10:01:01;5.30;;;2.00;;
20731;SDS011;10527;52.124;5.196;2022-11-18T10:03:37;2.80;;;2.03;;
20731;SDS011;10527;52.124;5.196;2022-11-18T10:18:15;3.43;;;2.33;;
20731;SDS011;10527;52.124;5.196;2022-11-18T10:24:06;4.93;;;2.40;;
20731;SDS011;10527;52.124;5.196;2022-11-18T10:26:45;4.60;;;2.43;;
20731;SDS011;10527;52.124;5.196;2022-11-18T10:29:12;4.80;;;2.27;;
20731;SDS011;10527;52.124;5.196;2022-11-18T10:31:44;3.20;;;1.93;;
20731;SDS011;10527;52.124;5.196;2022-11-18T10:34:30;4.03;;;2.23;;
20731;SDS011;10527;52.124;5.196;2022-11-18T10:39:47;3.57;;;2.33;;
20731;SDS011;10527;52.124;5.196;2022-11-18T10:42:19;3.80;;;2.13;;
20731;SDS011;10527;52.124;5.196;2022-11-18T10:45:14;4.40;;;2.43;;
20731;SDS011;10527;52.124;5.196;2022-11-18T10:48:01;5.13;;;1.90;;
20731;SDS011;10527;52.124;5.196;2022-11-18T10:50:48;4.27;;;2.60;;
20731;SDS011;10527;52.124;5.196;2022-11-18T10:53:29;6.33;;;2.37;;
20731;SDS011;10527;52.124;5.196;2022-11-18T10:55:57;4.70;;;2.20;;
20731;SDS011;10527;52.124;5.196;2022-11-18T10:58:34;5.03;;;2.90;;
20731;SDS011;10527;52.124;5.196;2022-11-18T11:04:03;6.83;;;2.20;;
20731;SDS011;10527;52.124;5.196;2022-11-18T11:09:06;4.47;;;2.23;;
20731;SDS011;10527;52.124;5.196;2022-11-18T11:11:55;6.23;;;2.33;;
20731;SDS011;10527;52.124;5.196;2022-11-18T11:17:17;4.43;;;1.80;;
20731;SDS011;10527;52.124;5.196;2022-11-18T11:22:46;5.47;;;2.30;;
20731;SDS011;10527;52.124;5.196;2022-11-18T11:25:14;5.53;;;3.20;;
20731;SDS011;10527;52.124;5.196;2022-11-18T11:28:02;4.70;;;2.40;;
20731;SDS011;10527;52.124;5.196;2022-11-18T11:30:45;4.43;;;2.20;;
20731;SDS011;10527;52.124;5.196;2022-11-18T11:34:01;4.93;;;2.00;;
20731;SDS011;10527;52.124;5.196;2022-11-18T11:37:09;5.57;;;2.43;;
20731;SDS011;10527;52.124;5.196;2022-11-18T11:39:59;4.47;;;2.73;;
20731;SDS011;10527;52.124;5.196;2022-11-18T11:42:35;5.00;;;2.60;;
20731;SDS011;10527;52.124;5.196;2022-11-18T11:52:22;4.43;;;2.70;;
20731;SDS011;10527;52.124;5.196;2022-11-18T11:55:10;3.83;;;2.27;;
20731;SDS011;10527;52.124;5.196;2022-11-18T11:58:17;4.30;;;2.50;;
20731;SDS011;10527;52.124;5.196;2022-11-18T12:01:23;3.90;;;2.50;;
20731;SDS011;10527;52.124;5.196;2022-11-18T12:06:57;6.20;;;2.90;;
20731;SDS011;10527;52.124;5.196;2022-11-18T12:15:03;4.57;;;2.87;;
20731;SDS011;10527;52.124;5.196;2022-11-18T12:20:59;5.73;;;3.43;;
20731;SDS011;10527;52.124;5.196;2022-11-18T12:23:30;5.10;;;3.40;;
20731;SDS011;10527;52.124;5.196;2022-11-18T12:33:52;6.13;;;5.27;;
20731;SDS011;10527;52.124;5.196;2022-11-18T12:36:34;12.63;;;6.20;;
20731;SDS011;10527;52.124;5.196;2022-11-18T12:41:56;11.00;;;6.33;;
20731;SDS011;10527;52.124;5.196;2022-11-18T12:44:51;10.07;;;7.10;;
20731;SDS011;10527;52.124;5.196;2022-11-18T12:50:12;7.93;;;7.13;;
20731;SDS011;10527;52.124;5.196;2022-11-18T12:55:24;9.90;;;8.60;;
20731;SDS011;10527;52.124;5.196;2022-11-18T12:57:56;10.27;;;8.00;;
20731;SDS011;10527;52.124;5.196;2022-11-18T13:02:56;14.48;;;9.15;;
20731;SDS011;10527;52.124;5.196;2022-11-18T13:05:27;12.00;;;7.93;;
20731;SDS011;10527;52.124;5.196;2022-11-18T13:08:11;8.40;;;7.60;;
20731;SDS011;10527;52.124;5.196;2022-11-18T13:10:50;7.60;;;6.77;;
20731;SDS011;10527;52.124;5.196;2022-11-18T13:13:41;8.35;;;6.63;;
20731;SDS011;10527;52.124;5.196;2022-11-18T13:16:16;9.70;;;6.37;;
20731;SDS011;10527;52.124;5.196;2022-11-18T13:19:07;7.50;;;6.78;;
20731;SDS011;10527;52.124;5.196;2022-11-18T13:24:46;8.40;;;6.67;;
20731;SDS011;10527;52.124;5.196;2022-11-18T13:27:42;7.87;;;6.07;;
20731;SDS011;10527;52.124;5.196;2022-11-18T13:30:19;8.03;;;5.57;;
20731;SDS011;10527;52.124;5.196;2022-11-18T13:32:49;6.90;;;6.15;;
20731;SDS011;10527;52.124;5.196;2022-11-18T13:35:24;7.33;;;6.53;;
20731;SDS011;10527;52.124;5.196;2022-11-18T13:37:55;8.93;;;6.23;;
20731;SDS011;10527;52.124;5.196;2022-11-18T13:40:28;10.60;;;7.10;;
20731;SDS011;10527;52.124;5.196;2022-11-18T13:43:04;8.83;;;6.17;;
20731;SDS011;10527;52.124;5.196;2022-11-18T13:45:31;7.78;;;6.20;;
20731;SDS011;10527;52.124;5.196;2022-11-18T13:48:09;9.30;;;6.20;;
20731;SDS011;10527;52.124;5.196;2022-11-18T13:50:40;9.50;;;6.07;;
20731;SDS011;10527;52.124;5.196;2022-11-18T13:56:00;5.95;;;5.45;;
20731;SDS011;10527;52.124;5.196;2022-11-18T13:58:39;6.22;;;5.43;;
20731;SDS011;10527;52.124;5.196;2022-11-18T14:01:36;6.83;;;5.53;;
20731;SDS011;10527;52.124;5.196;2022-11-18T14:04:14;7.60;;;5.47;;
20731;SDS011;10527;52.124;5.196;2022-11-18T14:06:51;10.37;;;5.40;;
20731;SDS011;10527;52.124;5.196;2022-11-18T14:09:29;6.80;;;5.00;;
20731;SDS011;10527;52.124;5.196;2022-11-18T14:11:58;7.38;;;5.28;;
20731;SDS011;10527;52.124;5.196;2022-11-18T14:14:50;10.23;;;5.55;;
20731;SDS011;10527;52.124;5.196;2022-11-18T14:17:24;6.77;;;5.17;;
20731;SDS011;10527;52.124;5.196;2022-11-18T14:19:54;6.87;;;5.07;;
20731;SDS011;10527;52.124;5.196;2022-11-18T14:22:24;7.22;;;5.18;;
20731;SDS011;10527;52.124;5.196;2022-11-18T14:24:55;9.27;;;5.47;;
20731;SDS011;10527;52.124;5.196;2022-11-18T14:27:40;7.27;;;4.60;;
20731;SDS011;10527;52.124;5.196;2022-11-18T14:38:24;7.57;;;5.03;;
20731;SDS011;10527;52.124;5.196;2022-11-18T14:41:20;6.53;;;4.85;;
20731;SDS011;10527;52.124;5.196;2022-11-18T14:44:10;6.30;;;5.27;;
20731;SDS011;10527;52.124;5.196;2022-11-18T14:46:38;10.57;;;5.20;;
20731;SDS011;10527;52.124;5.196;2022-11-18T14:49:12;8.63;;;5.63;;
20731;SDS011;10527;52.124;5.196;2022-11-18T14:51:44;7.70;;;4.33;;
20731;SDS011;10527;52.124;5.196;2022-11-18T14:54:14;6.10;;;5.10;;
20731;SDS011;10527;52.124;5.196;2022-11-18T14:56:52;5.60;;;3.90;;
20731;SDS011;10527;52.124;5.196;2022-11-18T14:59:28;5.70;;;4.00;;
20731;SDS011;10527;52.124;5.196;2022-11-18T15:01:55;6.03;;;4.07;;
20731;SDS011;10527;52.124;5.196;2022-11-18T15:04:23;8.40;;;4.80;;
20731;SDS011;10527;52.124;5.196;2022-11-18T15:06:51;9.77;;;5.17;;
20731;SDS011;10527;52.124;5.196;2022-11-18T15:09:18;5.23;;;4.63;;
20731;SDS011;10527;52.124;5.196;2022-11-18T15:11:45;5.23;;;3.93;;
20731;SDS011;10527;52.124;5.196;2022-11-18T15:14:11;6.03;;;4.13;;
20731;SDS011;10527;52.124;5.196;2022-11-18T15:16:38;6.33;;;4.47;;
20731;SDS011;10527;52.124;5.196;2022-11-18T15:19:06;5.70;;;4.63;;
20731;SDS011;10527;52.124;5.196;2022-11-18T15:21:40;5.00;;;4.50;;
20731;SDS011;10527;52.124;5.196;2022-11-18T15:24:10;6.67;;;4.03;;
20731;SDS011;10527;52.124;5.196;2022-11-18T15:26:39;7.50;;;4.80;;
20731;SDS011;10527;52.124;5.196;2022-11-18T15:29:16;7.10;;;5.13;;
20731;SDS011;10527;52.124;5.196;2022-11-18T15:31:46;7.43;;;5.27;;
20731;SDS011;10527;52.124;5.196;2022-11-18T15:34:14;8.50;;;5.23;;
20731;SDS011;10527;52.124;5.196;2022-11-18T15:36:43;19.93;;;7.50;;
20731;SDS011;10527;52.124;5.196;2022-11-18T15:39:11;8.90;;;5.73;;
20731;SDS011;10527;52.124;5.196;2022-11-18T15:41:40;8.93;;;4.93;;
20731;SDS011;10527;52.124;5.196;2022-11-18T15:44:08;6.60;;;5.33;;
20731;SDS011;10527;52.124;5.196;2022-11-18T15:46:36;5.40;;;4.13;;
20731;SDS011;10527;52.124;5.196;2022-11-18T15:49:03;6.33;;;4.60;;
20731;SDS011;10527;52.124;5.196;2022-11-18T15:51:34;7.03;;;4.50;;
20731;SDS011;10527;52.124;5.196;2022-11-18T15:54:01;6.73;;;4.17;;
20731;SDS011;10527;52.124;5.196;2022-11-18T15:56:28;6.77;;;4.23;;
20731;SDS011;10527;52.124;5.196;2022-11-18T15:58:57;6.57;;;4.10;;
20731;SDS011;10527;52.124;5.196;2022-11-18T16:01:29;5.00;;;4.00;;
20731;SDS011;10527;52.124;5.196;2022-11-18T16:04:16;4.30;;;3.70;;
20731;SDS011;10527;52.124;5.196;2022-11-18T16:06:44;8.67;;;4.33;;
20731;SDS011;10527;52.124;5.196;2022-11-18T16:09:13;9.43;;;5.20;;
20731;SDS011;10527;52.124;5.196;2022-11-18T16:11:42;6.57;;;4.87;;
20731;SDS011;10527;52.124;5.196;2022-11-18T16:14:28;6.73;;;5.37;;
20731;SDS011;10527;52.124;5.196;2022-11-18T16:16:55;5.80;;;4.97;;
20731;SDS011;10527;52.124;5.196;2022-11-18T16:19:23;6.50;;;5.50;;
20731;SDS011;10527;52.124;5.196;2022-11-18T16:21:52;5.57;;;4.87;;
20731;SDS011;10527;52.124;5.196;2022-11-18T16:24:26;5.97;;;4.80;;
20731;SDS011;10527;52.124;5.196;2022-11-18T16:26:54;7.10;;;4.77;;
20731;SDS011;10527;52.124;5.196;2022-11-18T16:29:22;6.57;;;4.73;;
20731;SDS011;10527;52.124;5.196;2022-11-18T16:31:50;5.60;;;5.03;;
20731;SDS011;10527;52.124;5.196;2022-11-18T16:34:19;7.10;;;5.13;;
20731;SDS011;10527;52.124;5.196;2022-11-18T16:36:52;5.90;;;4.50;;
20731;SDS011;10527;52.124;5.196;2022-11-18T16:39:23;7.60;;;4.50;;
20731;SDS011;10527;52.124;5.196;2022-11-18T16:41:52;8.13;;;6.43;;
20731;SDS011;10527;52.124;5.196;2022-11-18T16:44:31;8.87;;;6.00;;
20731;SDS011;10527;52.124;5.196;2022-11-18T16:46:58;8.40;;;6.03;;
20731;SDS011;10527;52.124;5.196;2022-11-18T16:49:25;7.67;;;5.67;;
20731;SDS011;10527;52.124;5.196;2022-11-18T16:51:53;7.10;;;5.10;;
20731;SDS011;10527;52.124;5.196;2022-11-18T16:54:26;6.17;;;5.53;;
20731;SDS011;10527;52.124;5.196;2022-11-18T16:56:57;7.67;;;5.13;;
20731;SDS011;10527;52.124;5.196;2022-11-18T16:59:25;8.73;;;5.13;;
20731;SDS011;10527;52.124;5.196;2022-11-18T17:01:55;7.83;;;4.93;;
20731;SDS011;10527;52.124;5.196;2022-11-18T17:04:24;8.30;;;5.53;;
20731;SDS011;10527;52.124;5.196;2022-11-18T17:06:53;8.33;;;5.57;;
20731;SDS011;10527;52.124;5.196;2022-11-18T17:09:22;5.77;;;5.20;;
20731;SDS011;10527;52.124;5.196;2022-11-18T17:11:50;6.43;;;4.87;;
20731;SDS011;10527;52.124;5.196;2022-11-18T17:14:20;7.70;;;5.40;;
20731;SDS011;10527;52.124;5.196;2022-11-18T17:16:51;5.97;;;5.37;;
20731;SDS011;10527;52.124;5.196;2022-11-18T17:19:19;7.87;;;5.30;;
20731;SDS011;10527;52.124;5.196;2022-11-18T17:21:49;6.23;;;4.90;;